CXA8313 ZUCK-ZSPD
Flight info
| Callsign | CXA8313 |
|---|---|
| Flight time | 1h 53m |
| Altitude | 371 |
| Route | K0828S1130 OLNER2X OLNER B213 WHA R343 SASAN SAS81A |
| Aircraft | B738/M-SDE2E3FGHIRWXY/LB1 |
Departure
| Time | 2026-04-30 17:46 |
|---|---|
| Airport | Chongqing Jiangbei International Airport (ZUCK) |
Arrival
| Time | 2026-04-30 19:39 |
|---|---|
| Airport | Shanghai Pudong International Airport (ZSPD) |
| Time | Latitude | Longitude | Altitude | Speed | Heading |
|---|---|---|---|---|---|
| 2026-04-30 17:39 | 29.71900 | 106.65692 | 1340 ft | 0 kts | 107° |
| 2026-04-30 17:41 | 29.71855 | 106.65857 | 1337 ft | 10 kts | 107° |
| 2026-04-30 17:42 | 29.71801 | 106.66040 | 1339 ft | 13 kts | 130° |
| 2026-04-30 17:42 | 29.71612 | 106.66065 | 1335 ft | 0 kts | 107° |
| 2026-04-30 17:43 | 29.71611 | 106.66066 | 1335 ft | 1 kts | 107° |
| 2026-04-30 17:44 | 29.71594 | 106.66194 | 1335 ft | 9 kts | 43° |
| 2026-04-30 17:44 | 29.72058 | 106.66358 | 1331 ft | 96 kts | 17° |
| 2026-04-30 17:46 | 29.78178 | 106.68638 | 3179 ft | 220 kts | 35° |
| 2026-04-30 17:47 | 29.83765 | 106.72985 | 4861 ft | 270 kts | 34° |
| 2026-04-30 17:48 | 29.87534 | 106.80668 | 7250 ft | 295 kts | 89° |
| 2026-04-30 17:48 | 29.87756 | 106.87799 | 9484 ft | 304 kts | 91° |
| 2026-04-30 17:49 | 29.88269 | 106.98383 | 11147 ft | 358 kts | 89° |
| 2026-04-30 17:50 | 29.88967 | 107.10107 | 13662 ft | 377 kts | 88° |
| 2026-04-30 17:51 | 29.89517 | 107.19288 | 15514 ft | 387 kts | 88° |
| 2026-04-30 17:52 | 29.90073 | 107.28687 | 17317 ft | 398 kts | 88° |
| 2026-04-30 17:53 | 29.91018 | 107.44954 | 19949 ft | 414 kts | 87° |
| 2026-04-30 17:54 | 29.91786 | 107.58437 | 21848 ft | 429 kts | 86° |
| 2026-04-30 17:55 | 29.92567 | 107.72413 | 23657 ft | 442 kts | 86° |
| 2026-04-30 17:56 | 29.94005 | 107.86652 | 25125 ft | 452 kts | 72° |
| 2026-04-30 17:57 | 29.96844 | 107.97087 | 26266 ft | 460 kts | 71° |
| 2026-04-30 17:58 | 29.99307 | 108.06530 | 27236 ft | 466 kts | 72° |
| 2026-04-30 17:59 | 30.02957 | 108.21055 | 28578 ft | 476 kts | 72° |
| 2026-04-30 18:00 | 30.06671 | 108.35879 | 29807 ft | 485 kts | 72° |
| 2026-04-30 18:00 | 30.09484 | 108.47228 | 30610 ft | 492 kts | 72° |
| 2026-04-30 18:01 | 30.11370 | 108.54856 | 31112 ft | 495 kts | 72° |
| 2026-04-30 18:02 | 30.14543 | 108.66224 | 31889 ft | 497 kts | 68° |
| 2026-04-30 18:02 | 30.17915 | 108.77534 | 32855 ft | 496 kts | 68° |
| 2026-04-30 18:03 | 30.21169 | 108.88780 | 33954 ft | 491 kts | 68° |
| 2026-04-30 18:04 | 30.24222 | 109.00092 | 34690 ft | 493 kts | 71° |
| 2026-04-30 18:05 | 30.27891 | 109.15327 | 35723 ft | 490 kts | 70° |
| 2026-04-30 18:06 | 30.31597 | 109.30448 | 36619 ft | 490 kts | 70° |
| 2026-04-30 18:07 | 30.35233 | 109.45597 | 37144 ft | 489 kts | 70° |
| 2026-04-30 18:08 | 30.37950 | 109.56927 | 37142 ft | 485 kts | 70° |
| 2026-04-30 18:10 | 30.42824 | 109.87633 | 37137 ft | 484 kts | 76° |
| 2026-04-30 18:11 | 30.46760 | 110.14714 | 37176 ft | 490 kts | 76° |
| 2026-04-30 18:13 | 30.49563 | 110.34285 | 37141 ft | 493 kts | 77° |
| 2026-04-30 18:14 | 30.52332 | 110.53830 | 37144 ft | 491 kts | 77° |
| 2026-04-30 18:15 | 30.55584 | 110.77073 | 37145 ft | 482 kts | 77° |
| 2026-04-30 18:16 | 30.57704 | 110.92377 | 37144 ft | 480 kts | 77° |
| 2026-04-30 18:17 | 30.58760 | 111.00057 | 37140 ft | 480 kts | 77° |
| 2026-04-30 18:18 | 30.60329 | 111.11529 | 37145 ft | 481 kts | 77° |
| 2026-04-30 18:18 | 30.61370 | 111.19184 | 37140 ft | 482 kts | 78° |
| 2026-04-30 18:19 | 30.62415 | 111.26901 | 37142 ft | 483 kts | 78° |
| 2026-04-30 18:19 | 30.63444 | 111.34582 | 37128 ft | 484 kts | 78° |
| 2026-04-30 18:20 | 30.64472 | 111.42307 | 37132 ft | 484 kts | 78° |
| 2026-04-30 18:20 | 30.65412 | 111.50094 | 37128 ft | 486 kts | 82° |
| 2026-04-30 18:21 | 30.65818 | 111.57911 | 37131 ft | 487 kts | 85° |
| 2026-04-30 18:21 | 30.66190 | 111.65759 | 37133 ft | 487 kts | 84° |
| 2026-04-30 18:22 | 30.66607 | 111.73624 | 37126 ft | 487 kts | 84° |
| 2026-04-30 18:22 | 30.67175 | 111.85367 | 37134 ft | 486 kts | 84° |
| 2026-04-30 18:23 | 30.67553 | 111.93222 | 37117 ft | 486 kts | 84° |
| 2026-04-30 18:23 | 30.67975 | 112.01053 | 37134 ft | 484 kts | 83° |
| 2026-04-30 18:24 | 30.68802 | 112.12724 | 37133 ft | 483 kts | 83° |
| 2026-04-30 18:25 | 30.69347 | 112.20523 | 37132 ft | 482 kts | 83° |
| 2026-04-30 18:25 | 30.70126 | 112.32149 | 37130 ft | 481 kts | 83° |
| 2026-04-30 18:26 | 30.70889 | 112.43760 | 37139 ft | 480 kts | 83° |
| 2026-04-30 18:27 | 30.71640 | 112.55343 | 37135 ft | 480 kts | 83° |
| 2026-04-30 18:28 | 30.72381 | 112.66915 | 37134 ft | 479 kts | 83° |
| 2026-04-30 18:28 | 30.73114 | 112.78532 | 37141 ft | 479 kts | 84° |
| 2026-04-30 18:29 | 30.74073 | 112.93972 | 37143 ft | 480 kts | 84° |
| 2026-04-30 18:30 | 30.75016 | 113.09466 | 37168 ft | 480 kts | 84° |
| 2026-04-30 18:31 | 30.75573 | 113.21082 | 37150 ft | 482 kts | 86° |
| 2026-04-30 18:32 | 30.75814 | 113.32739 | 37149 ft | 482 kts | 86° |
| 2026-04-30 18:33 | 30.76089 | 113.44408 | 37155 ft | 481 kts | 86° |
| 2026-04-30 18:33 | 30.76379 | 113.56045 | 37152 ft | 481 kts | 86° |
| 2026-04-30 18:34 | 30.76657 | 113.67708 | 37149 ft | 481 kts | 86° |
| 2026-04-30 18:35 | 30.76837 | 113.75491 | 37151 ft | 481 kts | 86° |
| 2026-04-30 18:35 | 30.77010 | 113.83232 | 37155 ft | 481 kts | 86° |
| 2026-04-30 18:36 | 30.77264 | 113.94928 | 37164 ft | 481 kts | 86° |
| 2026-04-30 18:37 | 30.77585 | 114.06555 | 37173 ft | 481 kts | 85° |
| 2026-04-30 18:37 | 30.77950 | 114.14321 | 37176 ft | 481 kts | 85° |
| 2026-04-30 18:38 | 30.78750 | 114.21989 | 37178 ft | 477 kts | 71° |
| 2026-04-30 18:38 | 30.81078 | 114.29130 | 37189 ft | 473 kts | 63° |
| 2026-04-30 18:39 | 30.83480 | 114.36287 | 37173 ft | 476 kts | 66° |
| 2026-04-30 18:39 | 30.85788 | 114.43563 | 37162 ft | 477 kts | 65° |
| 2026-04-30 18:40 | 30.88054 | 114.50611 | 37162 ft | 478 kts | 65° |
| 2026-04-30 18:40 | 30.90392 | 114.57817 | 37166 ft | 479 kts | 65° |
| 2026-04-30 18:41 | 30.92752 | 114.65109 | 37171 ft | 480 kts | 65° |
| 2026-04-30 18:41 | 30.95088 | 114.72356 | 37186 ft | 481 kts | 65° |
| 2026-04-30 18:42 | 30.97440 | 114.79676 | 37175 ft | 481 kts | 65° |
| 2026-04-30 18:42 | 31.00955 | 114.90640 | 37169 ft | 482 kts | 65° |
| 2026-04-30 18:45 | 31.13780 | 115.30768 | 37177 ft | 480 kts | 65° |
| 2026-04-30 18:46 | 31.16119 | 115.38017 | 37193 ft | 479 kts | 64° |
| 2026-04-30 18:46 | 31.18470 | 115.45251 | 37212 ft | 479 kts | 64° |
| 2026-04-30 18:47 | 31.20825 | 115.52548 | 37206 ft | 480 kts | 65° |
| 2026-04-30 18:47 | 31.23166 | 115.59837 | 37200 ft | 481 kts | 65° |
| 2026-04-30 18:48 | 31.25521 | 115.67193 | 37205 ft | 482 kts | 64° |
| 2026-04-30 18:48 | 31.27859 | 115.74504 | 37198 ft | 483 kts | 64° |
| 2026-04-30 18:49 | 31.30201 | 115.81846 | 37195 ft | 481 kts | 64° |
| 2026-04-30 18:49 | 31.32553 | 115.89195 | 37206 ft | 482 kts | 64° |
| 2026-04-30 18:50 | 31.34920 | 115.96478 | 37190 ft | 482 kts | 64° |
| 2026-04-30 18:50 | 31.37311 | 116.03785 | 37195 ft | 482 kts | 64° |
| 2026-04-30 18:51 | 31.39710 | 116.11151 | 37180 ft | 483 kts | 64° |
| 2026-04-30 18:51 | 31.42100 | 116.18520 | 37180 ft | 484 kts | 63° |
| 2026-04-30 18:52 | 31.44465 | 116.25835 | 37174 ft | 483 kts | 63° |
| 2026-04-30 18:52 | 31.46846 | 116.33216 | 37158 ft | 483 kts | 63° |
| 2026-04-30 18:53 | 31.49203 | 116.40536 | 37159 ft | 482 kts | 63° |
| 2026-04-30 18:53 | 31.51569 | 116.47902 | 37160 ft | 482 kts | 63° |
| 2026-04-30 18:54 | 31.53915 | 116.55222 | 37147 ft | 481 kts | 63° |
| 2026-04-30 18:54 | 31.56263 | 116.62567 | 37156 ft | 481 kts | 63° |
| 2026-04-30 18:55 | 31.58593 | 116.69870 | 37150 ft | 481 kts | 63° |
| 2026-04-30 18:55 | 31.61711 | 116.79668 | 37143 ft | 481 kts | 63° |
| 2026-04-30 18:56 | 31.65200 | 116.90672 | 37141 ft | 481 kts | 63° |
| 2026-04-30 18:57 | 31.68680 | 117.01684 | 37141 ft | 481 kts | 63° |
| 2026-04-30 18:57 | 31.70979 | 117.09074 | 37145 ft | 482 kts | 63° |
| 2026-04-30 18:58 | 31.74421 | 117.20216 | 37150 ft | 483 kts | 62° |
| 2026-04-30 18:59 | 31.77199 | 117.31646 | 37147 ft | 498 kts | 79° |
| 2026-04-30 19:00 | 31.76685 | 117.43924 | 37142 ft | 506 kts | 91° |
| 2026-04-30 19:00 | 31.76340 | 117.48064 | 37143 ft | 506 kts | 91° |
| 2026-04-30 19:01 | 31.75107 | 117.64547 | 37150 ft | 506 kts | 90° |
| 2026-04-30 19:02 | 31.74241 | 117.76873 | 37148 ft | 506 kts | 90° |
| 2026-04-30 19:03 | 31.73054 | 117.93333 | 37151 ft | 505 kts | 90° |
| 2026-04-30 19:04 | 31.71849 | 118.09745 | 37156 ft | 506 kts | 89° |
| 2026-04-30 19:05 | 31.70692 | 118.26248 | 37156 ft | 506 kts | 89° |
| 2026-04-30 19:06 | 31.69534 | 118.42730 | 37157 ft | 508 kts | 89° |
| 2026-04-30 19:06 | 31.68643 | 118.55123 | 37168 ft | 510 kts | 89° |
| 2026-04-30 19:07 | 31.67737 | 118.67558 | 37172 ft | 511 kts | 89° |
| 2026-04-30 19:08 | 31.66505 | 118.84207 | 37180 ft | 513 kts | 89° |
| 2026-04-30 19:09 | 31.65565 | 118.96759 | 36554 ft | 520 kts | 89° |
| 2026-04-30 19:09 | 31.65242 | 119.00984 | 35976 ft | 519 kts | 89° |
| 2026-04-30 19:09 | 31.64846 | 119.06149 | 35271 ft | 518 kts | 88° |
| 2026-04-30 19:10 | 31.64471 | 119.14474 | 34407 ft | 510 kts | 86° |
| 2026-04-30 19:10 | 31.64122 | 119.22774 | 33523 ft | 504 kts | 87° |
| 2026-04-30 19:11 | 31.63935 | 119.26816 | 33120 ft | 501 kts | 86° |
| 2026-04-30 19:11 | 31.63555 | 119.34947 | 32307 ft | 494 kts | 86° |
| 2026-04-30 19:11 | 31.63367 | 119.38969 | 31892 ft | 491 kts | 86° |
| 2026-04-30 19:12 | 31.63180 | 119.42909 | 31510 ft | 488 kts | 86° |
| 2026-04-30 19:12 | 31.62989 | 119.46886 | 31130 ft | 485 kts | 86° |
| 2026-04-30 19:12 | 31.62799 | 119.50838 | 30744 ft | 483 kts | 86° |
| 2026-04-30 19:13 | 31.62423 | 119.58635 | 29909 ft | 479 kts | 86° |
| 2026-04-30 19:13 | 31.62044 | 119.66378 | 29038 ft | 473 kts | 86° |
| 2026-04-30 19:13 | 31.61856 | 119.70235 | 28727 ft | 466 kts | 86° |
| 2026-04-30 19:14 | 31.61678 | 119.74009 | 28365 ft | 462 kts | 86° |
| 2026-04-30 19:14 | 31.61508 | 119.77718 | 27973 ft | 459 kts | 86° |
| 2026-04-30 19:14 | 31.61338 | 119.81452 | 27576 ft | 456 kts | 86° |
| 2026-04-30 19:14 | 31.61168 | 119.85146 | 27195 ft | 453 kts | 86° |
| 2026-04-30 19:15 | 31.60996 | 119.88838 | 26788 ft | 451 kts | 86° |
| 2026-04-30 19:15 | 31.60654 | 119.96110 | 25991 ft | 446 kts | 86° |
| 2026-04-30 19:15 | 31.60481 | 119.99737 | 25588 ft | 444 kts | 86° |
| 2026-04-30 19:16 | 31.60306 | 120.03371 | 25190 ft | 443 kts | 87° |
| 2026-04-30 19:16 | 31.60134 | 120.06930 | 24784 ft | 441 kts | 87° |
| 2026-04-30 19:16 | 31.59784 | 120.14105 | 23982 ft | 439 kts | 87° |
| 2026-04-30 19:17 | 31.59609 | 120.17679 | 23567 ft | 438 kts | 88° |
| 2026-04-30 19:17 | 31.59260 | 120.24724 | 22713 ft | 433 kts | 88° |
| 2026-04-30 19:17 | 31.59083 | 120.28247 | 22297 ft | 430 kts | 88° |
| 2026-04-30 19:18 | 31.58706 | 120.32915 | 21768 ft | 431 kts | 101° |
| 2026-04-30 19:18 | 31.57485 | 120.37320 | 21466 ft | 424 kts | 107° |
| 2026-04-30 19:18 | 31.56155 | 120.41596 | 21073 ft | 418 kts | 107° |
| 2026-04-30 19:19 | 31.55165 | 120.44795 | 20704 ft | 416 kts | 107° |
| 2026-04-30 19:19 | 31.54516 | 120.46921 | 20450 ft | 415 kts | 107° |
| 2026-04-30 19:19 | 31.52614 | 120.53283 | 19677 ft | 412 kts | 107° |
| 2026-04-30 19:20 | 31.51679 | 120.56446 | 19280 ft | 411 kts | 106° |
| 2026-04-30 19:20 | 31.50427 | 120.60694 | 18761 ft | 410 kts | 107° |
| 2026-04-30 19:20 | 31.48883 | 120.65923 | 18084 ft | 407 kts | 107° |
| 2026-04-30 19:21 | 31.47958 | 120.69048 | 17674 ft | 405 kts | 106° |
| 2026-04-30 19:21 | 31.46139 | 120.75187 | 16919 ft | 398 kts | 106° |
| 2026-04-30 19:22 | 31.44320 | 120.81260 | 16311 ft | 388 kts | 107° |
| 2026-04-30 19:22 | 31.41587 | 120.90014 | 15311 ft | 378 kts | 107° |
| 2026-04-30 19:23 | 31.38932 | 120.98595 | 14294 ft | 371 kts | 105° |
| 2026-04-30 19:24 | 31.37222 | 121.04242 | 13545 ft | 367 kts | 105° |
| 2026-04-30 19:24 | 31.36367 | 121.07058 | 13162 ft | 365 kts | 105° |
| 2026-04-30 19:24 | 31.34672 | 121.12626 | 12434 ft | 360 kts | 105° |
| 2026-04-30 19:25 | 31.32219 | 121.20802 | 11393 ft | 353 kts | 105° |
| 2026-04-30 19:26 | 31.30598 | 121.26203 | 10613 ft | 352 kts | 105° |
| 2026-04-30 19:26 | 31.28995 | 121.31517 | 10131 ft | 341 kts | 105° |
| 2026-04-30 19:26 | 31.28208 | 121.34117 | 9974 ft | 333 kts | 105° |
| 2026-04-30 19:27 | 31.26709 | 121.39048 | 9926 ft | 310 kts | 105° |
| 2026-04-30 19:27 | 31.25300 | 121.43697 | 9497 ft | 303 kts | 105° |
| 2026-04-30 19:28 | 31.24600 | 121.46001 | 9233 ft | 298 kts | 105° |
| 2026-04-30 19:28 | 31.23217 | 121.50544 | 8408 ft | 293 kts | 106° |
| 2026-04-30 19:29 | 31.23089 | 121.54931 | 7839 ft | 264 kts | 69° |
| 2026-04-30 19:29 | 31.23639 | 121.56979 | 7474 ft | 260 kts | 67° |
| 2026-04-30 19:30 | 31.26756 | 121.61467 | 6656 ft | 242 kts | 8° |
| 2026-04-30 19:30 | 31.29979 | 121.60985 | 6158 ft | 236 kts | 341° |
| 2026-04-30 19:31 | 31.33112 | 121.59762 | 5622 ft | 237 kts | 341° |
| 2026-04-30 19:31 | 31.34665 | 121.59164 | 5473 ft | 231 kts | 341° |
| 2026-04-30 19:31 | 31.37639 | 121.58113 | 5285 ft | 213 kts | 354° |
| 2026-04-30 19:32 | 31.39039 | 121.58466 | 5163 ft | 206 kts | 25° |
| 2026-04-30 19:32 | 31.40125 | 121.59531 | 5005 ft | 203 kts | 48° |
| 2026-04-30 19:32 | 31.40760 | 121.61001 | 4799 ft | 205 kts | 72° |
| 2026-04-30 19:32 | 31.41061 | 121.62618 | 4612 ft | 205 kts | 73° |
| 2026-04-30 19:33 | 31.41368 | 121.64260 | 4391 ft | 206 kts | 74° |
| 2026-04-30 19:33 | 31.41667 | 121.65867 | 4187 ft | 207 kts | 74° |
| 2026-04-30 19:33 | 31.41806 | 121.67544 | 3943 ft | 212 kts | 101° |
| 2026-04-30 19:33 | 31.41064 | 121.68993 | 3759 ft | 209 kts | 146° |
| 2026-04-30 19:34 | 31.39772 | 121.69594 | 3824 ft | 203 kts | 164° |
| 2026-04-30 19:34 | 31.38435 | 121.70116 | 3794 ft | 208 kts | 163° |
| 2026-04-30 19:34 | 31.35746 | 121.71160 | 3695 ft | 199 kts | 164° |
| 2026-04-30 19:35 | 31.34430 | 121.71660 | 3429 ft | 199 kts | 164° |
| 2026-04-30 19:35 | 31.33112 | 121.72160 | 3155 ft | 198 kts | 165° |
| 2026-04-30 19:35 | 31.31821 | 121.72649 | 3041 ft | 189 kts | 165° |
| 2026-04-30 19:35 | 31.30611 | 121.73108 | 2957 ft | 182 kts | 165° |
| 2026-04-30 19:36 | 31.29403 | 121.73565 | 2756 ft | 182 kts | 165° |
| 2026-04-30 19:36 | 31.28203 | 121.74020 | 2522 ft | 180 kts | 166° |
| 2026-04-30 19:36 | 31.25874 | 121.74903 | 2034 ft | 171 kts | 166° |
| 2026-04-30 19:37 | 31.24783 | 121.75317 | 1808 ft | 163 kts | 166° |
| 2026-04-30 19:37 | 31.23714 | 121.75721 | 1619 ft | 161 kts | 166° |
| 2026-04-30 19:37 | 31.22672 | 121.76116 | 1371 ft | 155 kts | 166° |
| 2026-04-30 19:37 | 31.21665 | 121.76498 | 1173 ft | 150 kts | 166° |
| 2026-04-30 19:38 | 31.20686 | 121.76869 | 987 ft | 149 kts | 166° |
| 2026-04-30 19:38 | 31.19697 | 121.77242 | 826 ft | 149 kts | 165° |
| 2026-04-30 19:38 | 31.18705 | 121.77611 | 624 ft | 150 kts | 165° |
| 2026-04-30 19:38 | 31.17733 | 121.77991 | 408 ft | 148 kts | 163° |
| 2026-04-30 19:39 | 31.16755 | 121.78362 | 208 ft | 146 kts | 163° |
| 2026-04-30 19:39 | 31.15787 | 121.78726 | 50 ft | 146 kts | 163° |
| 2026-04-30 19:39 | 31.14919 | 121.79053 | 27 ft | 106 kts | 162° |
| 2026-04-30 19:39 | 31.14418 | 121.79242 | 22 ft | 47 kts | 162° |
| 2026-04-30 19:40 | 31.14234 | 121.79318 | 20 ft | 23 kts | 152° |
| 2026-04-30 19:40 | 31.14111 | 121.79432 | 20 ft | 22 kts | 131° |
| 2026-04-30 19:40 | 31.14053 | 121.79508 | 21 ft | 10 kts | 132° |
| 2026-04-30 19:40 | 31.14005 | 121.79570 | 24 ft | 10 kts | 133° |
| 2026-04-30 19:41 | 31.13953 | 121.79624 | 22 ft | 10 kts | 144° |
| 2026-04-30 19:41 | 31.13893 | 121.79661 | 24 ft | 10 kts | 162° |
| 2026-04-30 19:41 | 31.13830 | 121.79682 | 24 ft | 9 kts | 164° |
| 2026-04-30 19:41 | 31.13768 | 121.79706 | 23 ft | 9 kts | 161° |
| 2026-04-30 19:42 | 31.13731 | 121.79757 | 22 ft | 9 kts | 91° |
| 2026-04-30 19:42 | 31.13748 | 121.79826 | 22 ft | 9 kts | 72° |
| 2026-04-30 19:42 | 31.13766 | 121.79893 | 22 ft | 8 kts | 73° |
| 2026-04-30 19:42 | 31.13784 | 121.79957 | 22 ft | 8 kts | 72° |
| 2026-04-30 19:43 | 31.13811 | 121.80012 | 22 ft | 8 kts | 33° |
| 2026-04-30 19:43 | 31.13864 | 121.80008 | 23 ft | 8 kts | 342° |
| 2026-04-30 19:43 | 31.13914 | 121.79989 | 22 ft | 7 kts | 342° |
| 2026-04-30 19:44 | 31.14010 | 121.79964 | 25 ft | 7 kts | 19° |
| 2026-04-30 19:44 | 31.14036 | 121.80010 | 22 ft | 7 kts | 73° |
| 2026-04-30 19:44 | 31.14046 | 121.80064 | 22 ft | 7 kts | 97° |
| 2026-04-30 19:44 | 31.14012 | 121.80099 | 22 ft | 7 kts | 147° |
| 2026-04-30 19:45 | 31.13992 | 121.80115 | 22 ft | 0 kts | 147° |
| 2026-04-30 19:45 | 31.13989 | 121.80117 | 22 ft | 0 kts | 147° |
| 2026-04-30 19:45 | 31.13987 | 121.80119 | 24 ft | 0 kts | 147° |
| 2026-04-30 19:45 | 31.13986 | 121.80119 | 24 ft | 0 kts | 147° |